createdAt,value
2022-09-06T00:00:31.631Z,97.70
2022-09-06T00:03:00.023Z,97.70
2022-09-06T00:05:28.714Z,97.70
2022-09-06T00:07:59.172Z,97.70
2022-09-06T00:10:27.939Z,97.70
2022-09-06T00:12:56.446Z,97.70
2022-09-06T00:15:26.109Z,97.70
2022-09-06T00:17:55.052Z,97.60
2022-09-06T00:20:27.000Z,97.70
2022-09-06T00:22:59.114Z,97.70
2022-09-06T00:25:29.155Z,97.60
2022-09-06T00:27:57.919Z,97.60
2022-09-06T00:30:28.300Z,97.60
2022-09-06T00:32:57.148Z,97.60
2022-09-06T00:35:26.752Z,97.60
2022-09-06T00:37:58.770Z,97.50
2022-09-06T00:40:27.610Z,97.50
2022-09-06T00:42:56.323Z,97.60
2022-09-06T00:45:26.281Z,97.50
2022-09-06T00:47:56.461Z,97.50
2022-09-06T00:50:24.842Z,97.50
2022-09-06T00:52:54.275Z,97.50
2022-09-06T00:55:24.066Z,97.50
2022-09-06T00:57:52.554Z,97.50
2022-09-06T01:00:21.598Z,97.50
2022-09-06T01:02:50.468Z,97.40
2022-09-06T01:05:21.070Z,97.40
2022-09-06T01:08:03.894Z,97.40
2022-09-06T01:11:04.730Z,97.40
2022-09-06T01:13:42.759Z,97.40
2022-09-06T01:16:19.766Z,97.40
2022-09-06T01:19:00.201Z,97.40
2022-09-06T01:21:45.079Z,97.40
2022-09-06T01:24:41.145Z,97.40
2022-09-06T01:27:45.490Z,97.40
2022-09-06T01:30:17.996Z,97.30
2022-09-06T01:32:53.631Z,97.30
2022-09-06T01:35:29.211Z,97.30
2022-09-06T01:37:59.165Z,97.30
2022-09-06T01:40:28.509Z,97.30
2022-09-06T01:42:59.167Z,97.30
2022-09-06T01:45:38.177Z,97.20
2022-09-06T01:48:16.348Z,97.20
2022-09-06T01:51:06.232Z,97.20
2022-09-06T01:53:47.564Z,97.20
2022-09-06T01:56:26.479Z,97.10
2022-09-06T01:59:09.082Z,97.20
2022-09-06T02:01:46.205Z,97.10
2022-09-06T02:04:22.432Z,97.20
2022-09-06T02:06:57.186Z,97.20
2022-09-06T02:09:27.883Z,97.20
2022-09-06T02:11:59.651Z,97.20
2022-09-06T02:14:33.250Z,97.20
2022-09-06T02:17:03.662Z,97.20
2022-09-06T02:19:36.878Z,97.20
2022-09-06T02:22:08.839Z,97.20
2022-09-06T02:24:40.721Z,97.20
2022-09-06T02:27:09.518Z,97.20
2022-09-06T02:29:39.268Z,97.20
2022-09-06T02:32:14.455Z,97.10
2022-09-06T02:34:43.274Z,97.10
2022-09-06T02:37:13.094Z,97.10
2022-09-06T02:39:41.522Z,97.10
2022-09-06T02:42:12.070Z,97.10
2022-09-06T02:44:41.729Z,97.10
2022-09-06T02:47:10.086Z,97.10
2022-09-06T02:49:39.161Z,97.10
2022-09-06T02:52:07.570Z,97.10
2022-09-06T02:54:35.839Z,97.10
2022-09-06T02:57:04.314Z,97.10
2022-09-06T02:59:32.554Z,97.10
2022-09-06T03:02:02.276Z,97.10
2022-09-06T03:04:30.704Z,97.10
2022-09-06T03:06:59.032Z,97.10
2022-09-06T03:09:27.391Z,97.10
2022-09-06T03:11:55.770Z,97.20
2022-09-06T03:14:24.027Z,97.20
2022-09-06T03:16:52.359Z,97.20
2022-09-06T03:19:22.434Z,97.30
2022-09-06T03:21:50.719Z,97.30
2022-09-06T03:24:19.059Z,97.30
2022-09-06T03:26:47.377Z,97.30
2022-09-06T03:29:16.153Z,97.30
2022-09-06T03:31:44.439Z,97.30
2022-09-06T03:34:12.694Z,97.30
2022-09-06T03:36:42.436Z,97.40
2022-09-06T03:39:10.773Z,97.40
2022-09-06T03:41:39.286Z,97.40
2022-09-06T03:44:07.575Z,97.50
2022-09-06T03:46:35.789Z,97.50
2022-09-06T03:49:04.087Z,97.50
2022-09-06T03:51:32.451Z,97.50
2022-09-06T03:54:02.098Z,97.50
2022-09-06T03:56:30.330Z,97.60
2022-09-06T03:58:58.591Z,97.60
2022-09-06T04:01:27.369Z,97.60
2022-09-06T04:03:55.766Z,97.60
2022-09-06T04:06:24.028Z,97.60
2022-09-06T04:08:52.296Z,97.70
2022-09-06T04:11:22.596Z,97.80
2022-09-06T04:13:50.919Z,97.80
2022-09-06T04:16:19.334Z,97.80
2022-09-06T04:18:47.574Z,97.90
2022-09-06T04:21:15.820Z,98.20
2022-09-06T04:23:44.089Z,98.30
2022-09-06T04:26:12.385Z,98.30
2022-09-06T04:28:45.410Z,98.80
2022-09-06T04:31:13.810Z,98.50
2022-09-06T04:33:42.555Z,98.50
2022-09-06T04:36:12.103Z,98.50
2022-09-06T04:38:42.290Z,98.50
2022-09-06T04:41:12.082Z,98.60
2022-09-06T04:43:42.223Z,98.60
2022-09-06T04:46:15.874Z,98.60
2022-09-06T04:48:44.203Z,98.70
2022-09-06T04:51:12.513Z,98.70
2022-09-06T04:53:40.813Z,98.70
2022-09-06T04:56:11.015Z,98.70
2022-09-06T04:58:39.261Z,98.60
2022-09-06T05:01:08.994Z,98.70
2022-09-06T05:03:37.395Z,98.70
2022-09-06T05:06:10.179Z,98.60
2022-09-06T05:08:39.702Z,98.70
2022-09-06T05:11:09.185Z,98.70
2022-09-06T05:13:37.740Z,98.70
2022-09-06T05:16:09.560Z,98.70
2022-09-06T05:18:38.564Z,98.70
2022-09-06T05:21:07.660Z,98.70
2022-09-06T05:23:35.978Z,98.70
2022-09-06T05:26:05.051Z,98.70
2022-09-06T05:28:33.683Z,98.70
2022-09-06T05:31:11.996Z,98.70
2022-09-06T05:33:40.802Z,98.70
2022-09-06T05:36:09.828Z,98.80
2022-09-06T05:38:38.103Z,98.80
2022-09-06T05:41:06.524Z,98.80
2022-09-06T05:43:34.844Z,98.80
2022-09-06T05:46:03.263Z,98.80
2022-09-06T05:48:36.801Z,98.80
2022-09-06T05:51:07.469Z,98.90
2022-09-06T05:53:36.789Z,98.90
2022-09-06T05:56:05.775Z,99.00
2022-09-06T05:58:34.230Z,99.00
2022-09-06T06:01:07.690Z,99.10
2022-09-06T06:03:38.948Z,99.10
2022-09-06T06:06:07.672Z,99.10
2022-09-06T06:08:36.434Z,99.10
2022-09-06T06:11:04.706Z,99.20
2022-09-06T06:13:35.012Z,99.20
2022-09-06T06:16:04.385Z,99.30
2022-09-06T06:18:32.720Z,99.30
2022-09-06T06:21:16.421Z,99.40
2022-09-06T06:23:46.390Z,99.50
2022-09-06T06:26:15.554Z,99.50
2022-09-06T06:28:44.012Z,99.90
2022-09-06T06:31:13.157Z,99.90
2022-09-06T06:33:42.159Z,99.90
2022-09-06T06:36:22.685Z,99.90
2022-09-06T06:38:52.739Z,99.90
2022-09-06T06:41:24.125Z,99.90
2022-09-06T06:43:53.889Z,99.90
2022-09-06T06:46:23.808Z,99.90
2022-09-06T06:48:54.909Z,99.90
2022-09-06T06:51:27.037Z,99.90
2022-09-06T06:53:56.917Z,99.90
2022-09-06T06:56:27.925Z,99.90
2022-09-06T06:58:58.623Z,99.90
2022-09-06T07:01:28.807Z,99.90
2022-09-06T07:03:58.253Z,99.90
2022-09-06T07:09:19.375Z,99.90
2022-09-06T07:11:49.319Z,99.90
2022-09-06T07:14:18.143Z,99.90
2022-09-06T07:16:46.868Z,99.90
2022-09-06T07:22:06.405Z,99.90
2022-09-06T07:24:35.260Z,99.90
2022-09-06T07:29:52.119Z,99.90
2022-09-06T07:32:20.535Z,99.90
2022-09-06T07:34:48.871Z,99.90
2022-09-06T07:37:18.597Z,99.90
2022-09-06T07:39:46.947Z,99.90
2022-09-06T07:42:16.222Z,99.90
2022-09-06T07:44:44.655Z,99.90
2022-09-06T07:53:13.925Z,99.90
2022-09-06T07:55:43.397Z,99.90
2022-09-06T07:58:12.320Z,99.90
2022-09-06T08:00:41.514Z,99.90
2022-09-06T08:03:10.453Z,99.90
2022-09-06T08:11:18.095Z,99.90
2022-09-06T08:13:49.536Z,99.90
2022-09-06T08:16:20.203Z,99.90
2022-09-06T08:18:53.689Z,99.90
2022-09-06T08:21:23.975Z,99.90
2022-09-06T08:23:55.113Z,99.90
2022-09-06T08:26:25.138Z,99.90
2022-09-06T08:28:59.155Z,99.90
2022-09-06T08:31:28.709Z,99.90
2022-09-06T08:33:57.849Z,99.90
2022-09-06T08:36:29.714Z,99.90
2022-09-06T08:39:00.346Z,99.90
2022-09-06T08:41:33.004Z,99.90
2022-09-06T08:46:59.290Z,99.90
2022-09-06T08:49:30.651Z,99.90
2022-09-06T08:52:37.517Z,99.90
2022-09-06T08:55:34.670Z,99.90
2022-09-06T08:58:14.474Z,99.90
2022-09-06T09:00:49.210Z,99.90
2022-09-06T09:03:21.446Z,99.90
2022-09-06T09:05:53.828Z,99.90
2022-09-06T09:08:27.244Z,99.90
2022-09-06T09:11:02.058Z,99.90
2022-09-06T09:13:39.204Z,99.90
2022-09-06T09:16:08.234Z,99.90
2022-09-06T09:18:40.337Z,99.90
2022-09-06T09:21:10.096Z,99.90
2022-09-06T09:23:38.892Z,99.90
2022-09-06T09:26:14.121Z,99.90
2022-09-06T09:29:03.849Z,99.90
2022-09-06T09:31:37.712Z,99.90
2022-09-06T09:34:06.724Z,99.90
2022-09-06T09:36:34.974Z,99.90
2022-09-06T09:39:10.683Z,99.90
2022-09-06T09:41:43.700Z,99.90
2022-09-06T09:44:18.064Z,99.90
2022-09-06T09:46:46.303Z,99.90
2022-09-06T09:49:28.961Z,99.90
2022-09-06T09:52:07.583Z,99.90
2022-09-06T09:54:39.535Z,99.90
2022-09-06T09:57:12.211Z,99.90
2022-09-06T09:59:45.306Z,99.90
2022-09-06T10:02:22.595Z,99.90
2022-09-06T10:04:54.755Z,99.90
2022-09-06T10:07:24.773Z,99.90
2022-09-06T10:10:00.000Z,99.90
2022-09-06T10:12:35.016Z,99.90
2022-09-06T10:15:07.059Z,99.90
2022-09-06T10:17:37.989Z,99.90
2022-09-06T10:20:10.174Z,99.90
2022-09-06T10:22:49.528Z,99.90
2022-09-06T10:25:38.834Z,99.90
2022-09-06T10:28:28.401Z,99.90
2022-09-06T10:31:10.137Z,99.90
2022-09-06T10:33:49.533Z,99.90
2022-09-06T10:36:18.907Z,99.90
2022-09-06T10:38:54.238Z,99.90
2022-09-06T10:41:43.101Z,99.90
2022-09-06T10:44:27.201Z,99.90
2022-09-06T10:47:02.540Z,99.90
2022-09-06T10:49:33.015Z,99.90
2022-09-06T10:52:05.458Z,99.90
2022-09-06T10:54:36.507Z,99.90
2022-09-06T11:00:06.837Z,99.90
2022-09-06T11:02:42.272Z,99.90
2022-09-06T11:10:55.557Z,99.90
2022-09-06T11:13:27.915Z,99.90
2022-09-06T11:16:05.290Z,99.90
2022-09-06T11:18:38.889Z,99.90
2022-09-06T11:21:23.866Z,99.90
2022-09-06T11:23:54.739Z,99.90
2022-09-06T11:26:35.395Z,99.90
2022-09-06T11:29:09.167Z,99.90
2022-09-06T11:34:44.122Z,99.90
2022-09-06T11:37:27.328Z,99.90
2022-09-06T11:43:40.034Z,99.90
2022-09-06T11:46:08.409Z,99.90
2022-09-06T11:49:03.496Z,99.90
2022-09-06T11:51:38.517Z,99.90
2022-09-06T11:54:24.636Z,99.90
2022-09-06T11:56:58.305Z,99.90
2022-09-06T11:59:42.587Z,99.90
2022-09-06T12:02:36.990Z,99.90
2022-09-06T12:05:22.520Z,99.90
2022-09-06T12:08:31.713Z,99.90
2022-09-06T12:11:06.125Z,99.90
2022-09-06T12:13:43.556Z,99.90
2022-09-06T12:16:13.248Z,99.90
2022-09-06T12:18:59.719Z,99.90
2022-09-06T12:21:47.599Z,99.90
2022-09-06T12:24:53.711Z,99.90
2022-09-06T12:27:23.364Z,99.90
2022-09-06T12:29:56.217Z,99.90
2022-09-06T12:32:28.427Z,99.90
2022-09-06T12:37:56.640Z,99.90
2022-09-06T12:40:27.296Z,99.90
2022-09-06T12:42:55.897Z,99.90
2022-09-06T12:45:27.555Z,99.90
2022-09-06T12:48:10.538Z,99.90
2022-09-06T12:50:39.454Z,99.90
2022-09-06T12:53:24.466Z,99.90
2022-09-06T12:56:06.556Z,99.90
2022-09-06T12:58:35.812Z,99.90
2022-09-06T13:01:10.547Z,99.90
2022-09-06T13:03:42.672Z,99.90
2022-09-06T13:06:19.089Z,99.90
2022-09-06T13:08:55.503Z,99.90
2022-09-06T13:11:28.483Z,99.90
2022-09-06T13:13:58.464Z,99.90
2022-09-06T13:16:33.071Z,99.90
2022-09-06T13:19:13.748Z,99.90
2022-09-06T13:21:47.037Z,99.90
2022-09-06T13:24:25.641Z,99.90
2022-09-06T13:26:54.653Z,99.90
2022-09-06T13:29:25.179Z,99.90
2022-09-06T13:31:55.705Z,99.90
2022-09-06T13:34:25.826Z,99.90
2022-09-06T13:36:55.460Z,99.90
2022-09-06T13:39:33.647Z,99.90
2022-09-06T13:42:04.158Z,99.90
2022-09-06T13:44:33.663Z,99.90
2022-09-06T13:47:01.936Z,99.90
2022-09-06T13:49:30.719Z,99.90
2022-09-06T13:52:04.088Z,99.90
2022-09-06T13:54:34.061Z,99.90
2022-09-06T13:57:02.678Z,99.90
2022-09-06T13:59:31.530Z,99.90
2022-09-06T14:02:03.183Z,99.90
2022-09-06T14:04:31.957Z,99.90
2022-09-06T14:07:00.895Z,99.90
2022-09-06T14:09:29.368Z,99.90
2022-09-06T14:11:59.192Z,99.90
2022-09-06T14:14:27.789Z,99.90
2022-09-06T14:16:57.068Z,99.90
2022-09-06T14:19:25.590Z,99.90
2022-09-06T14:21:53.990Z,99.90
2022-09-06T14:24:22.342Z,99.90
2022-09-06T14:26:50.875Z,99.90
2022-09-06T14:29:20.644Z,99.90
2022-09-06T14:31:49.335Z,99.90
2022-09-06T14:34:17.746Z,99.90
2022-09-06T14:36:45.979Z,99.90
2022-09-06T14:39:14.289Z,99.90
2022-09-06T14:41:42.785Z,99.90
2022-09-06T14:44:12.309Z,99.90
2022-09-06T14:46:42.351Z,99.90
2022-09-06T14:49:11.332Z,99.90
2022-09-06T14:51:40.694Z,99.90
2022-09-06T14:54:10.738Z,99.90
2022-09-06T14:56:40.522Z,99.90
2022-09-06T14:59:09.485Z,99.90
2022-09-06T15:01:39.034Z,99.90
2022-09-06T15:04:10.500Z,99.90
2022-09-06T15:06:40.666Z,99.90
2022-09-06T15:09:11.389Z,99.90
2022-09-06T15:11:42.309Z,99.90
2022-09-06T15:14:15.291Z,99.90
2022-09-06T15:16:44.192Z,99.90
2022-09-06T15:19:14.119Z,99.90
2022-09-06T15:21:43.022Z,99.90
2022-09-06T15:24:12.303Z,99.90
2022-09-06T15:26:41.222Z,99.90
2022-09-06T15:29:10.157Z,99.80
2022-09-06T15:31:39.260Z,99.40
2022-09-06T15:34:08.974Z,99.40
2022-09-06T15:36:39.100Z,99.10
2022-09-06T15:39:07.698Z,99.30
2022-09-06T15:41:37.719Z,99.20
2022-09-06T15:44:09.447Z,99.20
2022-09-06T15:46:47.363Z,99.00
2022-09-06T15:49:17.942Z,98.80
2022-09-06T15:51:47.910Z,98.80
2022-09-06T15:54:18.104Z,98.80
2022-09-06T15:56:46.963Z,98.80
2022-09-06T15:59:15.352Z,98.60
2022-09-06T16:01:44.005Z,98.80
2022-09-06T16:04:12.619Z,98.60
2022-09-06T16:06:42.583Z,98.90
2022-09-06T16:09:15.146Z,98.90
2022-09-06T16:11:43.638Z,98.90
2022-09-06T16:14:15.427Z,98.90
2022-09-06T16:16:44.715Z,98.80
2022-09-06T16:19:14.104Z,98.80
2022-09-06T16:21:43.892Z,98.90
2022-09-06T16:24:15.112Z,98.90
2022-09-06T16:26:46.225Z,99.00
2022-09-06T16:29:16.511Z,99.00
2022-09-06T16:31:45.032Z,99.00
2022-09-06T16:34:14.099Z,98.90
2022-09-06T16:36:42.681Z,98.80
2022-09-06T16:39:11.549Z,98.80
2022-09-06T16:41:44.087Z,98.70
2022-09-06T16:44:16.348Z,98.70
2022-09-06T16:46:46.022Z,98.70
2022-09-06T16:49:16.809Z,98.70
2022-09-06T16:51:45.731Z,98.70
2022-09-06T16:54:15.392Z,98.70
2022-09-06T16:56:45.740Z,98.70
2022-09-06T16:59:17.146Z,98.50
2022-09-06T17:01:46.249Z,98.70
2022-09-06T17:04:15.629Z,98.60
2022-09-06T17:06:45.822Z,98.70
2022-09-06T17:09:16.008Z,98.60
2022-09-06T17:11:46.883Z,98.80
2022-09-06T17:14:15.373Z,98.70
2022-09-06T17:17:01.387Z,98.70
2022-09-06T17:19:31.339Z,98.80
2022-09-06T17:21:59.676Z,98.80
2022-09-06T17:24:28.229Z,98.80
2022-09-06T17:26:58.024Z,98.90
2022-09-06T17:29:28.013Z,98.90
2022-09-06T17:31:56.487Z,98.90
2022-09-06T17:34:25.269Z,99.00
2022-09-06T17:36:54.035Z,99.10
2022-09-06T17:39:22.882Z,99.10
2022-09-06T17:41:53.644Z,99.20
2022-09-06T17:44:26.178Z,99.20
2022-09-06T17:47:12.536Z,99.20
2022-09-06T17:49:41.592Z,99.30
2022-09-06T17:52:11.148Z,99.60
2022-09-06T17:54:39.992Z,99.70
2022-09-06T17:57:08.682Z,99.80
2022-09-06T17:59:39.662Z,99.90
2022-09-06T18:02:08.919Z,99.90
2022-09-06T18:04:40.867Z,99.90
2022-09-06T18:07:09.773Z,99.90
2022-09-06T18:09:38.742Z,99.90
2022-09-06T18:12:08.206Z,99.90
2022-09-06T18:14:38.753Z,99.90
2022-09-06T18:17:09.118Z,99.90
2022-09-06T18:19:39.317Z,99.90
2022-09-06T18:22:08.183Z,99.90
2022-09-06T18:24:36.759Z,99.90
2022-09-06T18:27:05.863Z,99.90
2022-09-06T18:29:34.859Z,99.90
2022-09-06T18:32:07.700Z,99.90
2022-09-06T18:34:36.884Z,99.90
2022-09-06T18:37:06.012Z,99.90
2022-09-06T18:39:34.892Z,99.90
2022-09-06T18:42:07.110Z,99.90
2022-09-06T18:44:36.500Z,99.90
2022-09-06T18:47:08.795Z,99.90
2022-09-06T18:49:41.870Z,99.90
2022-09-06T18:52:12.382Z,99.90
2022-09-06T18:54:43.634Z,99.90
2022-09-06T18:57:12.307Z,99.90
2022-09-06T18:59:40.743Z,99.90
2022-09-06T19:02:10.533Z,99.90
2022-09-06T19:04:39.649Z,99.90
2022-09-06T19:07:08.306Z,99.90
2022-09-06T19:09:36.776Z,99.90
2022-09-06T19:12:05.914Z,99.90
2022-09-06T19:14:34.399Z,99.90
2022-09-06T19:17:02.759Z,99.90
2022-09-06T19:19:32.426Z,99.90
2022-09-06T19:22:00.774Z,99.90
2022-09-06T19:24:29.103Z,99.90
2022-09-06T19:26:57.482Z,99.90
2022-09-06T19:29:27.251Z,99.90
2022-09-06T19:31:55.631Z,99.90
2022-09-06T19:34:24.240Z,99.90
2022-09-06T19:36:55.293Z,99.90
2022-09-06T19:39:31.136Z,99.90
2022-09-06T19:42:02.334Z,99.90
2022-09-06T19:44:30.791Z,99.90
2022-09-06T19:47:00.122Z,99.90
2022-09-06T19:49:30.734Z,99.90
2022-09-06T19:52:02.487Z,99.90
2022-09-06T19:54:31.429Z,99.90
2022-09-06T19:57:00.088Z,99.90
2022-09-06T19:59:29.268Z,99.90
2022-09-06T20:01:58.179Z,99.90
2022-09-06T20:04:28.532Z,99.90
2022-09-06T20:06:57.627Z,99.90
2022-09-06T20:09:27.354Z,99.90
2022-09-06T20:11:55.730Z,99.90
2022-09-06T20:14:24.812Z,99.90
2022-09-06T20:16:53.278Z,99.90
2022-09-06T20:19:21.680Z,99.90
2022-09-06T20:21:50.315Z,99.90
2022-09-06T20:24:18.612Z,99.90
2022-09-06T20:26:48.423Z,99.90
2022-09-06T20:29:16.739Z,99.90
2022-09-06T20:31:45.315Z,99.90
2022-09-06T20:34:20.265Z,99.90
2022-09-06T20:36:48.747Z,99.90
2022-09-06T20:39:17.266Z,99.90
2022-09-06T20:41:46.915Z,99.90
2022-09-06T20:44:15.411Z,99.90
2022-09-06T20:46:43.889Z,99.90
2022-09-06T20:49:15.091Z,99.90
2022-09-06T20:51:43.883Z,99.90
2022-09-06T20:54:13.933Z,99.90
2022-09-06T20:56:44.201Z,99.90
2022-09-06T20:59:14.959Z,99.90
2022-09-06T21:01:45.158Z,99.90
2022-09-06T21:04:15.352Z,99.90
2022-09-06T21:06:45.762Z,99.90
2022-09-06T21:09:15.211Z,99.90
2022-09-06T21:11:44.199Z,99.90
2022-09-06T21:14:14.933Z,99.90
2022-09-06T21:16:46.148Z,99.90
2022-09-06T21:19:14.639Z,99.90
2022-09-06T21:21:46.814Z,99.90
2022-09-06T21:24:15.381Z,99.90
2022-09-06T21:26:44.265Z,99.90
2022-09-06T21:29:13.929Z,99.90
2022-09-06T21:31:42.378Z,99.90
2022-09-06T21:34:16.814Z,99.90
2022-09-06T21:36:45.673Z,99.90
2022-09-06T21:39:14.799Z,99.90
2022-09-06T21:41:44.417Z,99.90
2022-09-06T21:44:14.536Z,99.90
2022-09-06T21:46:42.976Z,99.90
2022-09-06T21:49:13.021Z,99.90
2022-09-06T21:51:42.115Z,99.90
2022-09-06T21:54:11.177Z,99.90
2022-09-06T21:56:40.309Z,99.90
2022-09-06T21:59:09.004Z,99.90
2022-09-06T22:01:40.176Z,99.90
2022-09-06T22:04:09.075Z,99.90
2022-09-06T22:06:37.794Z,99.90
2022-09-06T22:09:10.802Z,99.90
2022-09-06T22:11:40.465Z,99.90
2022-09-06T22:14:10.672Z,99.90
2022-09-06T22:16:42.034Z,99.90
2022-09-06T22:19:11.415Z,99.90
2022-09-06T22:21:39.798Z,99.90
2022-09-06T22:24:10.016Z,99.90
2022-09-06T22:26:39.900Z,99.90
2022-09-06T22:29:10.760Z,99.90
2022-09-06T22:31:41.260Z,99.90
2022-09-06T22:34:10.398Z,99.90
2022-09-06T22:36:38.926Z,99.90
2022-09-06T22:39:07.320Z,99.90
2022-09-06T22:41:35.727Z,99.90
2022-09-06T22:44:05.010Z,99.90
2022-09-06T22:46:34.038Z,99.90
2022-09-06T22:49:05.342Z,99.90
2022-09-06T22:51:33.755Z,99.90
2022-09-06T22:54:02.335Z,99.90
2022-09-06T22:56:30.730Z,99.90
2022-09-06T22:59:00.289Z,99.90
2022-09-06T23:01:29.228Z,99.90
2022-09-06T23:03:57.603Z,99.90
2022-09-06T23:06:27.566Z,99.90
2022-09-06T23:08:55.927Z,99.90
2022-09-06T23:11:24.352Z,99.90
2022-09-06T23:13:56.822Z,99.90
2022-09-06T23:16:26.020Z,99.90
2022-09-06T23:18:55.323Z,99.90
2022-09-06T23:21:25.190Z,99.90
2022-09-06T23:23:56.591Z,99.90
2022-09-06T23:26:28.616Z,99.90
2022-09-06T23:28:57.367Z,99.90
2022-09-06T23:31:27.938Z,99.90
2022-09-06T23:33:57.958Z,99.90
2022-09-06T23:36:26.695Z,99.90
2022-09-06T23:38:57.055Z,99.90
2022-09-06T23:41:25.759Z,99.90
2022-09-06T23:43:54.204Z,99.90
2022-09-06T23:46:22.715Z,99.90
2022-09-06T23:48:51.069Z,99.90
2022-09-06T23:51:19.833Z,99.90
2022-09-06T23:53:48.316Z,99.90
2022-09-06T23:56:20.038Z,99.90
2022-09-06T23:58:48.415Z,99.90
